createdAt,value
2022-11-16T00:02:10.045Z,7.22
2022-11-16T00:05:12.590Z,7.27
2022-11-16T00:08:14.753Z,7.26
2022-11-16T00:11:20.400Z,7.25
2022-11-16T00:14:23.950Z,7.29
2022-11-16T00:17:26.850Z,7.25
2022-11-16T00:20:29.019Z,7.17
2022-11-16T00:23:31.854Z,7.17
2022-11-16T00:26:34.137Z,7.21
2022-11-16T00:29:36.706Z,7.22
2022-11-16T00:32:38.913Z,7.18
2022-11-16T00:35:41.862Z,7.22
2022-11-16T00:38:44.227Z,7.25
2022-11-16T00:41:48.424Z,7.28
2022-11-16T00:44:50.579Z,7.25
2022-11-16T00:47:57.701Z,7.25
2022-11-16T00:51:02.646Z,7.25
2022-11-16T00:54:06.615Z,7.25
2022-11-16T00:57:09.306Z,7.33
2022-11-16T01:00:12.268Z,7.30
2022-11-16T01:03:14.740Z,7.24
2022-11-16T01:06:17.568Z,7.21
2022-11-16T01:09:20.033Z,7.28
2022-11-16T01:12:23.242Z,7.23
2022-11-16T01:15:26.803Z,7.25
2022-11-16T01:18:29.789Z,7.20
2022-11-16T01:21:32.055Z,7.21
2022-11-16T01:24:34.726Z,7.29
2022-11-16T01:27:37.334Z,7.24
2022-11-16T01:30:40.345Z,7.25
2022-11-16T01:33:42.812Z,7.37
2022-11-16T01:36:47.738Z,7.38
2022-11-16T01:39:53.182Z,7.44
2022-11-16T01:42:56.083Z,7.41
2022-11-16T01:45:58.624Z,7.38
2022-11-16T01:49:06.877Z,7.33
2022-11-16T01:52:11.266Z,7.25
2022-11-16T01:55:14.147Z,7.25
2022-11-16T01:58:19.761Z,7.22
2022-11-16T02:01:24.119Z,7.30
2022-11-16T02:04:27.058Z,7.25
2022-11-16T02:07:58.794Z,7.21
2022-11-16T02:11:04.361Z,7.19
2022-11-16T02:14:06.864Z,7.18
2022-11-16T02:17:09.509Z,7.20
2022-11-16T02:20:14.948Z,7.18
2022-11-16T02:23:17.479Z,7.18
2022-11-16T02:26:44.046Z,7.27
2022-11-16T02:29:56.656Z,7.37
2022-11-16T02:33:04.399Z,7.35
2022-11-16T02:36:10.830Z,7.35
2022-11-16T02:39:16.908Z,7.27
2022-11-16T02:42:22.127Z,7.37
2022-11-16T02:45:25.825Z,7.31
2022-11-16T02:48:35.704Z,7.36
2022-11-16T02:51:39.954Z,7.32
2022-11-16T02:54:42.502Z,7.25
2022-11-16T02:57:53.619Z,7.25
2022-11-16T03:01:01.170Z,7.29
2022-11-16T03:04:08.666Z,7.33
2022-11-16T03:07:14.373Z,7.32
2022-11-16T03:10:37.702Z,7.32
2022-11-16T03:13:41.230Z,7.30
2022-11-16T03:16:48.238Z,7.26
2022-11-16T03:20:09.426Z,7.26
2022-11-16T03:23:13.884Z,7.33
2022-11-16T03:26:19.191Z,7.42
2022-11-16T03:29:33.013Z,7.41
2022-11-16T03:32:58.692Z,7.33
2022-11-16T03:36:11.476Z,7.36
2022-11-16T03:39:22.681Z,7.39
2022-11-16T03:42:26.208Z,7.45
2022-11-16T03:45:30.063Z,7.40
2022-11-16T03:48:36.678Z,7.37
2022-11-16T03:51:41.222Z,7.44
2022-11-16T03:54:43.519Z,7.42
2022-11-16T03:57:46.679Z,7.42
2022-11-16T04:00:49.117Z,7.39
2022-11-16T04:03:51.633Z,7.33
2022-11-16T04:07:13.181Z,7.34
2022-11-16T04:10:34.511Z,7.39
2022-11-16T04:13:55.270Z,7.45
2022-11-16T04:17:16.796Z,7.45
2022-11-16T04:20:37.598Z,7.46
2022-11-16T04:23:58.985Z,7.47
2022-11-16T04:27:21.342Z,7.47
2022-11-16T04:30:24.234Z,7.56
2022-11-16T04:33:45.262Z,7.51
2022-11-16T04:37:06.600Z,7.47
2022-11-16T04:40:09.436Z,7.46
2022-11-16T04:43:11.982Z,7.43
2022-11-16T04:46:32.897Z,7.44
2022-11-16T04:49:35.424Z,7.44
2022-11-16T04:52:37.728Z,7.46
2022-11-16T04:55:40.384Z,7.45
2022-11-16T04:58:43.994Z,7.42
2022-11-16T05:02:05.170Z,7.51
2022-11-16T05:05:07.891Z,7.49
2022-11-16T05:08:11.831Z,7.50
2022-11-16T05:11:14.106Z,7.51
2022-11-16T05:14:16.877Z,7.55
2022-11-16T05:17:19.304Z,7.51
2022-11-16T05:20:41.971Z,7.50
2022-11-16T05:24:03.316Z,7.49
2022-11-16T05:27:07.930Z,7.51
2022-11-16T05:30:11.335Z,7.40
2022-11-16T05:33:16.472Z,7.43
2022-11-16T05:36:18.830Z,7.50
2022-11-16T05:39:21.736Z,7.54
2022-11-16T05:42:25.417Z,7.46
2022-11-16T05:45:28.247Z,7.42
2022-11-16T05:48:31.698Z,7.52
2022-11-16T05:51:38.951Z,7.42
2022-11-16T05:54:42.173Z,7.44
2022-11-16T05:57:44.808Z,7.49
2022-11-16T06:00:47.281Z,7.48
2022-11-16T06:03:51.078Z,7.43
2022-11-16T06:06:53.684Z,7.45
2022-11-16T06:09:56.505Z,7.47
2022-11-16T06:12:59.861Z,7.44
2022-11-16T06:16:03.178Z,7.48
2022-11-16T06:19:05.952Z,7.53
2022-11-16T06:22:08.646Z,7.57
2022-11-16T06:25:11.015Z,7.55
2022-11-16T06:28:13.764Z,7.61
2022-11-16T06:31:16.527Z,7.50
2022-11-16T06:34:19.774Z,7.50
2022-11-16T06:37:21.980Z,7.56
2022-11-16T06:40:24.978Z,7.53
2022-11-16T06:43:27.371Z,7.52
2022-11-16T06:46:30.268Z,7.62
2022-11-16T06:49:32.600Z,7.62
2022-11-16T06:52:35.667Z,7.62
2022-11-16T06:55:38.464Z,7.60
2022-11-16T06:58:42.895Z,7.56
2022-11-16T07:01:45.634Z,7.57
2022-11-16T07:04:48.677Z,7.66
2022-11-16T07:07:55.334Z,7.72
2022-11-16T07:11:04.128Z,7.68
2022-11-16T07:14:08.407Z,7.69
2022-11-16T07:17:11.907Z,7.71
2022-11-16T07:20:15.114Z,7.73
2022-11-16T07:23:19.900Z,7.85
2022-11-16T07:26:23.102Z,7.88
2022-11-16T07:29:26.526Z,7.88
2022-11-16T07:32:35.602Z,7.86
2022-11-16T07:35:38.351Z,7.82
2022-11-16T07:38:40.945Z,7.74
2022-11-16T07:41:45.011Z,7.86
2022-11-16T07:44:47.654Z,7.84
2022-11-16T07:47:52.402Z,7.88
2022-11-16T07:50:59.921Z,7.86
2022-11-16T07:54:02.542Z,7.92
2022-11-16T07:57:04.723Z,7.97
2022-11-16T08:00:08.352Z,7.94
2022-11-16T08:03:18.201Z,7.95
2022-11-16T08:06:27.258Z,8.06
2022-11-16T08:09:29.875Z,8.15
2022-11-16T08:12:33.500Z,8.12
2022-11-16T08:15:36.158Z,8.15
2022-11-16T08:18:40.374Z,8.01
2022-11-16T08:21:42.814Z,8.06
2022-11-16T08:24:45.426Z,8.17
2022-11-16T08:27:47.876Z,8.27
2022-11-16T08:30:53.979Z,8.29
2022-11-16T08:33:56.823Z,8.30
2022-11-16T08:36:59.708Z,8.12
2022-11-16T08:40:03.590Z,8.22
2022-11-16T08:43:08.301Z,8.27
2022-11-16T08:46:11.296Z,8.30
2022-11-16T08:49:14.434Z,8.27
2022-11-16T08:52:16.978Z,8.37
2022-11-16T08:55:19.809Z,8.38
2022-11-16T08:58:22.528Z,8.38
2022-11-16T09:01:26.638Z,8.51
2022-11-16T09:04:32.741Z,8.42
2022-11-16T09:07:39.792Z,8.53
2022-11-16T09:10:42.595Z,8.51
2022-11-16T09:13:45.759Z,8.66
2022-11-16T09:16:47.938Z,8.68
2022-11-16T09:19:50.415Z,8.77
2022-11-16T09:22:52.622Z,8.73
2022-11-16T09:25:55.110Z,8.72
2022-11-16T09:28:58.915Z,8.69
2022-11-16T09:32:02.233Z,8.65
2022-11-16T09:35:04.554Z,8.64
2022-11-16T09:38:09.884Z,8.67
2022-11-16T09:41:15.173Z,8.71
2022-11-16T09:44:44.890Z,8.65
2022-11-16T09:47:51.787Z,8.64
2022-11-16T09:50:57.304Z,8.67
2022-11-16T09:54:08.554Z,8.74
2022-11-16T09:57:13.235Z,8.76
2022-11-16T10:00:18.077Z,8.72
2022-11-16T10:03:20.626Z,8.64
2022-11-16T10:06:28.732Z,8.81
2022-11-16T10:09:31.285Z,8.88
2022-11-16T10:12:37.936Z,8.93
2022-11-16T10:15:52.859Z,8.86
2022-11-16T10:19:19.972Z,8.88
2022-11-16T10:22:34.547Z,8.82
2022-11-16T10:25:49.365Z,8.98
2022-11-16T10:29:11.048Z,8.99
2022-11-16T10:32:19.719Z,8.87
2022-11-16T10:35:45.626Z,8.86
2022-11-16T10:38:48.216Z,8.82
2022-11-16T10:41:50.905Z,8.89
2022-11-16T10:45:05.951Z,9.02
2022-11-16T10:48:21.214Z,8.91
2022-11-16T10:51:23.505Z,8.98
2022-11-16T10:54:26.137Z,8.83
2022-11-16T10:57:48.294Z,8.79
2022-11-16T11:00:51.820Z,8.81
2022-11-16T11:03:54.317Z,8.86
2022-11-16T11:07:19.661Z,8.97
2022-11-16T11:10:28.235Z,9.00
2022-11-16T11:13:30.836Z,9.00
2022-11-16T11:16:33.278Z,8.87
2022-11-16T11:19:35.750Z,9.04
2022-11-16T11:22:49.485Z,9.07
2022-11-16T11:25:54.013Z,9.27
2022-11-16T11:28:56.910Z,9.17
2022-11-16T11:32:07.945Z,9.07
2022-11-16T11:35:21.882Z,9.10
2022-11-16T11:38:25.421Z,9.14
2022-11-16T11:41:34.430Z,9.09
2022-11-16T11:44:37.171Z,9.03
2022-11-16T11:47:57.391Z,9.01
2022-11-16T11:51:10.228Z,8.99
2022-11-16T11:54:15.231Z,8.89
2022-11-16T11:57:22.091Z,8.96
2022-11-16T12:00:26.130Z,8.94
2022-11-16T12:03:42.202Z,9.06
2022-11-16T12:06:52.087Z,9.02
2022-11-16T12:10:11.557Z,9.06
2022-11-16T12:13:13.865Z,9.14
2022-11-16T12:16:27.484Z,9.16
2022-11-16T12:19:45.865Z,9.11
2022-11-16T12:23:06.624Z,9.09
2022-11-16T12:26:31.436Z,8.99
2022-11-16T12:29:44.725Z,8.94
2022-11-16T12:32:59.142Z,8.93
2022-11-16T12:36:06.263Z,8.95
2022-11-16T12:39:17.301Z,8.91
2022-11-16T12:42:35.212Z,9.00
2022-11-16T12:45:45.766Z,8.96
2022-11-16T12:48:54.443Z,8.95
2022-11-16T12:52:15.774Z,9.04
2022-11-16T12:55:41.399Z,9.07
2022-11-16T12:58:50.615Z,9.05
2022-11-16T13:02:00.791Z,9.00
2022-11-16T13:05:05.431Z,9.00
2022-11-16T13:08:13.241Z,8.87
2022-11-16T13:11:18.616Z,8.78
2022-11-16T13:14:24.851Z,8.76
2022-11-16T13:17:36.686Z,8.72
2022-11-16T13:20:45.482Z,8.75
2022-11-16T13:23:53.986Z,8.81
2022-11-16T13:27:17.414Z,8.76
2022-11-16T13:30:21.482Z,8.74
2022-11-16T13:33:30.900Z,8.77
2022-11-16T13:36:43.289Z,8.79
2022-11-16T13:39:57.772Z,8.79
2022-11-16T13:42:59.949Z,8.78
2022-11-16T13:46:02.804Z,8.68
2022-11-16T13:49:04.966Z,8.78
2022-11-16T13:52:23.082Z,8.78
2022-11-16T13:55:33.553Z,8.78
2022-11-16T13:58:37.907Z,8.83
2022-11-16T14:01:57.605Z,8.66
2022-11-16T14:05:01.062Z,8.66
2022-11-16T14:08:18.780Z,8.62
2022-11-16T14:11:39.872Z,8.67
2022-11-16T14:15:03.635Z,8.72
2022-11-16T14:18:09.234Z,8.67
2022-11-16T14:21:14.950Z,8.66
2022-11-16T14:24:25.758Z,8.64
2022-11-16T14:27:38.696Z,8.70
2022-11-16T14:30:47.230Z,8.62
2022-11-16T14:33:51.272Z,8.62
2022-11-16T14:36:56.097Z,8.61
2022-11-16T14:40:17.644Z,8.61
2022-11-16T14:43:40.671Z,8.58
2022-11-16T14:46:43.625Z,8.56
2022-11-16T14:49:47.007Z,8.53
2022-11-16T14:52:51.286Z,8.58
2022-11-16T14:56:07.629Z,8.61
2022-11-16T14:59:16.156Z,8.58
2022-11-16T15:02:27.324Z,8.56
2022-11-16T15:05:32.928Z,8.59
2022-11-16T15:08:42.877Z,8.54
2022-11-16T15:12:06.139Z,8.50
2022-11-16T15:15:08.679Z,8.54
2022-11-16T15:18:13.018Z,8.55
2022-11-16T15:21:22.663Z,8.53
2022-11-16T15:24:30.869Z,8.50
2022-11-16T15:27:36.641Z,8.48
2022-11-16T15:30:40.280Z,8.47
2022-11-16T15:33:44.043Z,8.47
2022-11-16T15:36:46.622Z,8.48
2022-11-16T15:39:49.247Z,8.40
2022-11-16T15:42:53.229Z,8.42
2022-11-16T15:45:55.868Z,8.43
2022-11-16T15:48:58.792Z,8.46
2022-11-16T15:52:01.627Z,8.44
2022-11-16T15:55:03.938Z,8.43
2022-11-16T15:58:06.424Z,8.56
2022-11-16T16:01:09.806Z,8.57
2022-11-16T16:04:16.291Z,8.65
2022-11-16T16:07:37.565Z,8.50
2022-11-16T16:10:40.175Z,8.47
2022-11-16T16:13:43.667Z,8.45
2022-11-16T16:16:49.398Z,8.46
2022-11-16T16:19:56.372Z,8.46
2022-11-16T16:23:09.754Z,8.46
2022-11-16T16:26:12.203Z,8.48
2022-11-16T16:29:14.704Z,8.47
2022-11-16T16:32:27.466Z,8.42
2022-11-16T16:35:30.066Z,8.37
2022-11-16T16:38:32.639Z,8.37
2022-11-16T16:41:35.106Z,8.40
2022-11-16T16:44:37.500Z,8.46
2022-11-16T16:47:39.952Z,8.41
2022-11-16T16:50:42.266Z,8.39
2022-11-16T16:53:44.771Z,8.42
2022-11-16T16:56:48.226Z,8.45
2022-11-16T16:59:50.915Z,8.46
2022-11-16T17:02:53.643Z,8.47
2022-11-16T17:05:59.449Z,8.42
2022-11-16T17:09:01.953Z,8.39
2022-11-16T17:12:04.519Z,8.38
2022-11-16T17:15:07.008Z,8.44
2022-11-16T17:18:09.749Z,8.37
2022-11-16T17:21:11.985Z,8.37
2022-11-16T17:24:14.527Z,8.37
2022-11-16T17:27:16.698Z,8.44
2022-11-16T17:30:19.209Z,8.37
2022-11-16T17:33:21.407Z,8.39
2022-11-16T17:36:23.889Z,8.39
2022-11-16T17:39:26.123Z,8.33
2022-11-16T17:42:28.655Z,8.36
2022-11-16T17:45:30.916Z,8.42
2022-11-16T17:48:34.257Z,8.36
2022-11-16T17:51:36.622Z,8.37
2022-11-16T17:54:39.199Z,8.34
2022-11-16T17:57:41.402Z,8.31
2022-11-16T18:00:43.977Z,8.44
2022-11-16T18:03:46.469Z,8.44
2022-11-16T18:06:48.725Z,8.42
2022-11-16T18:09:51.269Z,8.39
2022-11-16T18:12:53.515Z,8.38
2022-11-16T18:16:01.487Z,8.42
2022-11-16T18:19:05.257Z,8.43
2022-11-16T18:22:07.753Z,8.42
2022-11-16T18:25:10.764Z,8.41
2022-11-16T18:28:13.201Z,8.38
2022-11-16T18:31:17.869Z,8.33
2022-11-16T18:34:20.356Z,8.34
2022-11-16T18:37:22.528Z,8.32
2022-11-16T18:40:25.022Z,8.34
2022-11-16T18:43:27.321Z,8.32
2022-11-16T18:46:31.243Z,8.38
2022-11-16T18:49:33.549Z,8.35
2022-11-16T18:52:36.183Z,8.32
2022-11-16T18:55:38.465Z,8.35
2022-11-16T18:58:51.533Z,8.37
2022-11-16T19:01:54.840Z,8.35
2022-11-16T19:04:57.323Z,8.37
2022-11-16T19:07:59.604Z,8.39
2022-11-16T19:11:06.449Z,8.40
2022-11-16T19:14:08.722Z,8.42
2022-11-16T19:17:11.468Z,8.48
2022-11-16T19:20:13.884Z,8.43
2022-11-16T19:23:16.497Z,8.38
2022-11-16T19:26:19.585Z,8.38
2022-11-16T19:29:22.117Z,8.36
2022-11-16T19:32:24.750Z,8.32
2022-11-16T19:35:27.229Z,8.36
2022-11-16T19:38:29.665Z,8.36
2022-11-16T19:41:32.471Z,8.40
2022-11-16T19:44:34.640Z,8.40
2022-11-16T19:47:37.175Z,8.43
2022-11-16T19:50:39.337Z,8.37
2022-11-16T19:53:42.537Z,8.32
2022-11-16T19:56:49.347Z,8.33
2022-11-16T19:59:54.683Z,8.34
2022-11-16T20:02:57.654Z,8.29
2022-11-16T20:06:04.238Z,8.24
2022-11-16T20:09:11.339Z,8.30
2022-11-16T20:12:14.129Z,8.41
2022-11-16T20:15:16.423Z,8.31
2022-11-16T20:18:18.972Z,8.25
2022-11-16T20:21:25.853Z,8.22
2022-11-16T20:24:28.379Z,8.27
2022-11-16T20:27:30.569Z,8.27
2022-11-16T20:30:33.131Z,8.33
2022-11-16T20:33:35.829Z,8.38
2022-11-16T20:36:38.492Z,8.27
2022-11-16T20:39:41.938Z,8.39
2022-11-16T20:42:44.378Z,8.38
2022-11-16T20:45:51.391Z,8.39
2022-11-16T20:48:55.879Z,8.32
2022-11-16T20:51:58.166Z,8.33
2022-11-16T20:55:00.714Z,8.31
2022-11-16T20:58:02.926Z,8.29
2022-11-16T21:01:06.656Z,8.22
2022-11-16T21:04:10.840Z,8.21
2022-11-16T21:07:14.021Z,8.23
2022-11-16T21:10:19.210Z,8.25
2022-11-16T21:13:40.150Z,8.30
2022-11-16T21:16:42.620Z,8.26
2022-11-16T21:19:59.728Z,8.33
2022-11-16T21:23:07.307Z,8.34
2022-11-16T21:26:14.061Z,8.37
2022-11-16T21:29:16.283Z,8.30
2022-11-16T21:32:18.824Z,8.37
2022-11-16T21:35:21.276Z,8.38
2022-11-16T21:38:27.707Z,8.42
2022-11-16T21:41:30.105Z,8.49
2022-11-16T21:44:41.899Z,8.41
2022-11-16T21:47:44.129Z,8.34
2022-11-16T21:50:46.603Z,8.27
2022-11-16T21:53:48.875Z,8.21
2022-11-16T21:56:51.371Z,8.24
2022-11-16T21:59:53.659Z,8.24
2022-11-16T22:02:56.067Z,8.39
2022-11-16T22:06:18.813Z,8.42
2022-11-16T22:09:21.265Z,8.29
2022-11-16T22:12:23.752Z,8.29
2022-11-16T22:15:25.966Z,8.18
2022-11-16T22:18:29.607Z,8.15
2022-11-16T22:21:31.779Z,8.25
2022-11-16T22:24:34.219Z,8.18
2022-11-16T22:27:58.464Z,8.32
2022-11-16T22:31:03.072Z,8.29
2022-11-16T22:34:05.452Z,8.17
2022-11-16T22:37:08.071Z,8.15
2022-11-16T22:40:14.968Z,8.15
2022-11-16T22:43:20.751Z,8.11
2022-11-16T22:46:23.020Z,8.14
2022-11-16T22:49:25.719Z,8.24
2022-11-16T22:52:28.151Z,8.30
2022-11-16T22:55:30.849Z,8.31
2022-11-16T22:58:33.225Z,8.31
2022-11-16T23:01:36.674Z,8.24
2022-11-16T23:04:38.878Z,8.21
2022-11-16T23:07:43.877Z,8.11
2022-11-16T23:11:04.832Z,8.13
2022-11-16T23:14:28.143Z,8.19
2022-11-16T23:17:30.346Z,8.25
2022-11-16T23:20:53.190Z,8.15
2022-11-16T23:24:24.151Z,8.10
2022-11-16T23:27:31.731Z,8.15
2022-11-16T23:30:34.437Z,8.19
2022-11-16T23:33:46.128Z,8.14
2022-11-16T23:36:48.258Z,8.06
2022-11-16T23:39:50.667Z,8.05
2022-11-16T23:43:11.538Z,8.10
2022-11-16T23:46:13.946Z,8.05
2022-11-16T23:49:16.220Z,8.08
2022-11-16T23:52:18.646Z,8.04
2022-11-16T23:55:23.048Z,8.06
2022-11-16T23:58:25.577Z,8.03
